Galicia — ECEC — position and weather

sailwx.info

Track history (hours):
 
Tides and Currents Weather Stations Pressure Air Temp Water Temp Dewpoint Dewpoint Depression Visibility Wind Speed Wind Dir Waves Ship Positions

Galicia

Last reported at 2015-Mar-27 07:31 UTC. Time now 2015-Mar-28 22:18 UTC.
Position N 39°15' W 009°50'.

Length 149 m; draft 5.7 m.

Type: Cargo ship. MMSI: 224548000.

Date/timePositionNaut miles runAvg speedWind from/ knotsBaromVisibWave heightAir tempDewpointWater temp
2015-Mar-27 07:31N 39°15' W 009°50'1413.8
2015-Mar-27 06:33N 39°02' W 009°50'1414.2
2015-Mar-27 05:31N 38°47' W 009°51'1414.1
2015-Mar-27 04:33N 38°34' W 009°49'1414.2
2015-Mar-27 03:32N 38°20' W 009°44'1514.2
2015-Mar-27 02:28N 38°05' W 009°40'1314.0
2015-Mar-27 01:33N 37°52' W 009°36'1414.1
2015-Mar-27 00:33N 37°39' W 009°32'40712.0
2015-Mar-25 14:33N 37°14' W 001°01'1615.6
2015-Mar-25 13:33N 37°25' W 000°46'1616.1
2015-Mar-25 12:33N 37°36' W 000°32'1515.5
2015-Mar-25 11:33N 37°49' W 000°21'1515.4
2015-Mar-25 10:33N 38°02' W 000°10'12415.5
2015-Mar-25 02:32N 39°49' E 001°09'1414.8
2015-Mar-25 01:33N 40°02' E 001°18'1615.5
2015-Mar-25 00:33N 40°15' E 001°28'1515.2
2015-Mar-24 23:33N 40°29' E 001°36'1515.4
2015-Mar-24 22:33N 40°43' E 001°47'1515.0
2015-Mar-24 21:33N 40°56' E 001°56'1514.7
2015-Mar-24 20:32N 41°09' E 002°05'4 0.3
2015-Mar-24 06:29N 41°05' E 002°08'1313.5
2015-Mar-24 05:33N 40°53' E 002°03'2 2.1
2015-Mar-24 04:33N 40°55' E 002°04'2 1.9
2015-Mar-24 03:30N 40°57' E 002°04'2 1.6
2015-Mar-24 02:33N 40°58' E 002°05'2 1.7
2015-Mar-24 01:33N 40°60' E 002°05'2 1.8
2015-Mar-24 00:32N 41°02' E 002°06'2 1.9
2015-Mar-23 23:32N 41°03' E 002°06'2 1.7
2015-Mar-23 22:26N 41°05' E 002°07'10 1.8
2015-Mar-23 17:14N 41°09' E 002°19'1 1.3
2015-Mar-23 16:30N 41°08' E 002°18'9 8.6
2015-Mar-23 15:30N 41°04' E 002°08'9 9.8
2015-Mar-23 14:33N 40°56' E 002°03'10 9.8
2015-Mar-23 13:33N 40°46' E 001°59'9 9.1
2015-Mar-23 12:33N 40°38' E 001°55'9 9.1
2015-Mar-23 11:33N 40°29' E 001°50'9 9.5
2015-Mar-23 10:33N 40°20' E 001°46'10 9.8
2015-Mar-23 09:33N 40°11' E 001°42'10 9.7
2015-Mar-23 08:33N 40°02' E 001°38'1010.0
2015-Mar-23 07:33N 39°53' E 001°33'1010.0
2015-Mar-23 06:33N 39°43' E 001°29'1310.0
2015-Mar-23 05:17N 39°31' E 001°23'710.0
2015-Mar-23 04:32N 39°24' E 001°20'1010.0
2015-Mar-23 03:31N 39°15' E 001°15'2110.3
2015-Mar-23 01:30N 38°55' E 001°06'1110.0
2015-Mar-23 00:24N 38°44' E 001°03'  
Track history (hours):
 
Tides and Currents Weather Stations Pressure Air Temp Water Temp Dewpoint Dewpoint Depression Visibility Wind Speed Wind Dir Waves Ship Positions

Galicia

Last reported at 2015-Mar-27 07:31 UTC. Time now 2015-Mar-28 22:18 UTC.
Position N 39°15' W 009°50'.

Length 149 m; draft 5.7 m.

Type: Cargo ship. MMSI: 224548000.

Date/timePositionNaut miles runAvg speedWind from/ knotsBaromVisibWave heightAir tempDewpointWater temp
2015-Mar-27 07:31N 39°15' W 009°50'1413.8
2015-Mar-27 06:33N 39°02' W 009°50'1414.2
2015-Mar-27 05:31N 38°47' W 009°51'1414.1
2015-Mar-27 04:33N 38°34' W 009°49'1414.2
2015-Mar-27 03:32N 38°20' W 009°44'1514.2
2015-Mar-27 02:28N 38°05' W 009°40'1314.0
2015-Mar-27 01:33N 37°52' W 009°36'1414.1
2015-Mar-27 00:33N 37°39' W 009°32'40712.0
2015-Mar-25 14:33N 37°14' W 001°01'1615.6
2015-Mar-25 13:33N 37°25' W 000°46'1616.1
2015-Mar-25 12:33N 37°36' W 000°32'1515.5
2015-Mar-25 11:33N 37°49' W 000°21'1515.4
2015-Mar-25 10:33N 38°02' W 000°10'12415.5
2015-Mar-25 02:32N 39°49' E 001°09'1414.8
2015-Mar-25 01:33N 40°02' E 001°18'1615.5
2015-Mar-25 00:33N 40°15' E 001°28'1515.2
2015-Mar-24 23:33N 40°29' E 001°36'1515.4
2015-Mar-24 22:33N 40°43' E 001°47'1515.0
2015-Mar-24 21:33N 40°56' E 001°56'1514.7
2015-Mar-24 20:32N 41°09' E 002°05'4 0.3
2015-Mar-24 06:29N 41°05' E 002°08'1313.5
2015-Mar-24 05:33N 40°53' E 002°03'2 2.1
2015-Mar-24 04:33N 40°55' E 002°04'2 1.9
2015-Mar-24 03:30N 40°57' E 002°04'2 1.6
2015-Mar-24 02:33N 40°58' E 002°05'2 1.7
2015-Mar-24 01:33N 40°60' E 002°05'2 1.8
2015-Mar-24 00:32N 41°02' E 002°06'2 1.9
2015-Mar-23 23:32N 41°03' E 002°06'2 1.7
2015-Mar-23 22:26N 41°05' E 002°07'10 1.8
2015-Mar-23 17:14N 41°09' E 002°19'1 1.3
2015-Mar-23 16:30N 41°08' E 002°18'9 8.6
2015-Mar-23 15:30N 41°04' E 002°08'9 9.8
2015-Mar-23 14:33N 40°56' E 002°03'10 9.8
2015-Mar-23 13:33N 40°46' E 001°59'9 9.1
2015-Mar-23 12:33N 40°38' E 001°55'9 9.1
2015-Mar-23 11:33N 40°29' E 001°50'9 9.5
2015-Mar-23 10:33N 40°20' E 001°46'10 9.8
2015-Mar-23 09:33N 40°11' E 001°42'10 9.7
2015-Mar-23 08:33N 40°02' E 001°38'1010.0
2015-Mar-23 07:33N 39°53' E 001°33'1010.0
2015-Mar-23 06:33N 39°43' E 001°29'1310.0
2015-Mar-23 05:17N 39°31' E 001°23'710.0
2015-Mar-23 04:32N 39°24' E 001°20'1010.0
2015-Mar-23 03:31N 39°15' E 001°15'2110.3
2015-Mar-23 01:30N 38°55' E 001°06'1110.0
2015-Mar-23 00:24N 38°44' E 001°03'  

Dump ship's entire track history